createdAt,value
2022-08-05T00:01:48.792Z,50.95
2022-08-05T00:06:02.523Z,50.86
2022-08-05T00:08:53.408Z,51.09
2022-08-05T00:12:15.365Z,51.21
2022-08-05T00:15:55.476Z,52.00
2022-08-05T00:19:18.154Z,52.26
2022-08-05T00:22:47.185Z,52.38
2022-08-05T00:26:22.382Z,51.89
2022-08-05T00:29:44.116Z,51.87
2022-08-05T00:33:07.452Z,52.84
2022-08-05T00:37:09.721Z,51.97
2022-08-05T00:40:30.939Z,53.11
2022-08-05T00:43:52.670Z,52.75
2022-08-05T00:47:16.365Z,53.29
2022-08-05T00:50:41.229Z,53.25
2022-08-05T00:54:04.294Z,53.40
2022-08-05T00:57:38.335Z,53.58
2022-08-05T01:01:09.069Z,54.16
2022-08-05T01:04:31.702Z,54.47
2022-08-05T01:08:40.890Z,54.51
2022-08-05T01:11:39.003Z,54.36
2022-08-05T01:15:06.177Z,54.45
2022-08-05T01:18:56.351Z,54.91
2022-08-05T01:22:46.983Z,55.33
2022-08-05T01:26:26.368Z,55.29
2022-08-05T01:29:53.657Z,56.08
2022-08-05T01:33:19.700Z,56.16
2022-08-05T01:36:47.142Z,56.53
2022-08-05T01:40:12.444Z,56.57
2022-08-05T01:43:35.207Z,55.72
2022-08-05T01:46:59.949Z,55.71
2022-08-05T01:50:28.823Z,55.83
2022-08-05T01:53:56.960Z,55.59
2022-08-05T01:58:12.771Z,55.82
2022-08-05T02:01:09.900Z,56.06
2022-08-05T02:04:36.197Z,56.16
2022-08-05T02:08:01.424Z,56.37
2022-08-05T02:11:33.547Z,56.45
2022-08-05T02:15:05.723Z,56.44
2022-08-05T02:18:42.041Z,56.88
2022-08-05T02:22:25.929Z,57.38
2022-08-05T02:25:52.244Z,57.63
2022-08-05T02:29:21.459Z,57.65
2022-08-05T02:32:44.396Z,58.21
2022-08-05T02:36:10.060Z,58.52
2022-08-05T02:39:41.283Z,58.93
2022-08-05T02:43:03.506Z,59.09
2022-08-05T02:46:30.249Z,59.57
2022-08-05T02:49:52.796Z,59.53
2022-08-05T02:53:19.473Z,59.64
2022-08-05T02:56:46.116Z,59.80
2022-08-05T03:00:09.732Z,60.11
2022-08-05T03:03:34.216Z,60.53
2022-08-05T03:07:48.492Z,60.52
2022-08-05T03:11:01.127Z,60.94
2022-08-05T03:14:46.100Z,60.85
2022-08-05T03:18:10.046Z,61.39
2022-08-05T03:21:33.067Z,61.62
2022-08-05T03:25:31.973Z,61.79
2022-08-05T03:28:45.166Z,61.88
2022-08-05T03:32:09.738Z,62.17
2022-08-05T03:35:34.081Z,62.68
2022-08-05T03:39:08.139Z,63.06
2022-08-05T03:42:52.253Z,62.97
2022-08-05T03:46:15.482Z,63.20
2022-08-05T03:49:51.911Z,63.57
2022-08-05T03:55:54.206Z,63.62
2022-08-05T03:57:02.121Z,63.62
2022-08-05T04:00:39.667Z,63.54
2022-08-05T04:04:10.276Z,63.92
2022-08-05T04:07:46.738Z,64.02
2022-08-05T04:11:18.452Z,64.42
2022-08-05T04:14:43.566Z,64.91
2022-08-05T04:18:09.395Z,64.94
2022-08-05T04:22:05.313Z,64.85
2022-08-05T04:25:15.411Z,64.44
2022-08-05T04:28:37.223Z,64.16
2022-08-05T04:32:13.157Z,63.93
2022-08-05T04:36:15.913Z,63.94
2022-08-05T04:39:19.715Z,64.39
2022-08-05T04:42:42.783Z,64.09
2022-08-05T04:46:08.387Z,63.95
2022-08-05T04:50:00.862Z,63.91
2022-08-05T04:53:13.015Z,65.26
2022-08-05T04:56:37.259Z,65.12
2022-08-05T05:00:00.842Z,64.90
2022-08-05T05:03:22.888Z,65.41
2022-08-05T05:06:51.966Z,65.33
2022-08-05T05:10:19.204Z,66.48
2022-08-05T05:13:43.186Z,66.47
2022-08-05T05:17:07.364Z,67.05
2022-08-05T05:20:31.395Z,66.55
2022-08-05T05:24:04.139Z,66.53
2022-08-05T05:27:45.741Z,65.47
2022-08-05T05:31:10.293Z,65.00
2022-08-05T05:34:33.338Z,64.91
2022-08-05T05:38:00.000Z,64.88
2022-08-05T05:41:23.019Z,65.13
2022-08-05T05:44:45.941Z,64.72
2022-08-05T05:48:08.789Z,63.85
2022-08-05T05:51:49.711Z,64.10
2022-08-05T05:55:14.826Z,64.43
2022-08-05T05:58:36.385Z,64.52
2022-08-05T06:02:01.815Z,63.70
2022-08-05T06:05:24.518Z,63.52
2022-08-05T06:08:49.555Z,63.76
2022-08-05T06:12:12.240Z,64.02
2022-08-05T06:16:29.590Z,63.60
2022-08-05T06:19:26.046Z,63.87
2022-08-05T06:22:55.827Z,63.40
2022-08-05T06:26:24.054Z,63.43
2022-08-05T06:30:04.200Z,62.79
2022-08-05T06:33:33.448Z,63.33
2022-08-05T06:37:11.425Z,63.29
2022-08-05T06:40:34.541Z,62.92
2022-08-05T06:44:00.730Z,62.30
2022-08-05T06:47:42.156Z,62.44
2022-08-05T06:51:07.320Z,61.97
2022-08-05T06:54:31.416Z,62.01
2022-08-05T06:58:02.824Z,61.75
2022-08-05T07:01:35.677Z,61.77
2022-08-05T07:04:58.527Z,61.47
2022-08-05T07:08:20.853Z,61.49
2022-08-05T07:11:51.590Z,61.59
2022-08-05T07:15:34.405Z,61.29
2022-08-05T07:19:16.115Z,60.82
2022-08-05T07:22:55.562Z,60.33
2022-08-05T07:26:22.558Z,60.68
2022-08-05T07:30:23.806Z,60.62
2022-08-05T07:33:36.802Z,61.19
2022-08-05T07:37:00.992Z,61.19
2022-08-05T07:40:31.361Z,60.73
2022-08-05T07:43:56.684Z,59.98
2022-08-05T07:47:18.513Z,59.34
2022-08-05T07:50:47.556Z,58.31
2022-08-05T07:54:12.749Z,57.86
2022-08-05T07:57:42.049Z,58.83
2022-08-05T08:01:17.317Z,57.59
2022-08-05T08:04:44.995Z,57.12
2022-08-05T08:08:07.162Z,56.85
2022-08-05T08:11:47.869Z,56.63
2022-08-05T08:15:17.328Z,57.06
2022-08-05T08:18:39.586Z,56.38
2022-08-05T08:22:01.347Z,56.88
2022-08-05T08:25:26.409Z,57.16
2022-08-05T08:28:55.155Z,56.52
2022-08-05T08:32:21.775Z,55.35
2022-08-05T08:35:53.860Z,54.77
2022-08-05T08:39:32.182Z,53.84
2022-08-05T08:45:19.456Z,52.40
2022-08-05T08:46:45.503Z,51.20
2022-08-05T08:50:23.158Z,50.61
2022-08-05T08:53:51.155Z,49.84
2022-08-05T08:57:13.817Z,50.45
2022-08-05T09:00:36.043Z,51.31
2022-08-05T09:04:00.954Z,51.19
2022-08-05T09:07:28.925Z,51.61
2022-08-05T09:11:01.254Z,51.88
2022-08-05T09:14:56.989Z,52.20
2022-08-05T09:18:08.660Z,52.78
2022-08-05T09:22:22.226Z,53.43
2022-08-05T09:25:24.061Z,53.87
2022-08-05T09:29:05.047Z,53.71
2022-08-05T09:32:40.632Z,54.17
2022-08-05T09:36:16.262Z,54.57
2022-08-05T09:39:45.840Z,55.24
2022-08-05T09:43:28.118Z,56.45
2022-08-05T09:47:15.787Z,56.84
2022-08-05T09:50:44.532Z,56.84
2022-08-05T09:54:09.412Z,57.38
2022-08-05T09:57:39.698Z,57.10
2022-08-05T10:01:15.050Z,56.77
2022-08-05T10:04:45.224Z,56.86
2022-08-05T10:08:34.947Z,56.99
2022-08-05T10:11:50.870Z,56.98
2022-08-05T10:15:20.961Z,56.11
2022-08-05T10:18:43.502Z,55.94
2022-08-05T10:22:15.651Z,55.99
2022-08-05T10:25:51.727Z,56.04
2022-08-05T10:29:13.399Z,55.61
2022-08-05T10:32:59.574Z,56.21
2022-08-05T10:36:26.286Z,57.91
2022-08-05T10:40:04.037Z,59.29
2022-08-05T10:43:44.121Z,60.77
2022-08-05T10:47:26.844Z,63.49
2022-08-05T10:51:03.352Z,65.10
2022-08-05T10:54:46.988Z,65.94
2022-08-05T10:58:20.589Z,66.03
2022-08-05T11:01:55.114Z,68.49
2022-08-05T11:05:29.267Z,69.36
2022-08-05T11:09:16.702Z,69.88
2022-08-05T11:12:50.898Z,70.21
2022-08-05T11:16:47.824Z,70.98
2022-08-05T11:20:10.755Z,70.92
2022-08-05T11:24:05.689Z,70.22
2022-08-05T11:27:45.756Z,70.63
2022-08-05T11:31:57.537Z,71.42
2022-08-05T11:35:10.495Z,73.37
2022-08-05T11:38:57.558Z,72.15
2022-08-05T11:42:28.071Z,71.00
2022-08-05T11:46:15.259Z,71.14
2022-08-05T11:49:33.759Z,69.74
2022-08-05T11:52:58.212Z,67.38
2022-08-05T11:56:25.348Z,65.57
2022-08-05T12:00:02.106Z,63.03
2022-08-05T12:03:55.598Z,62.80
2022-08-05T12:08:07.348Z,59.76
2022-08-05T12:11:05.955Z,57.79
2022-08-05T12:14:37.329Z,57.97
2022-08-05T12:18:03.651Z,57.01
2022-08-05T12:21:39.142Z,56.70
2022-08-05T12:25:01.639Z,56.34
2022-08-05T12:28:35.139Z,57.22
2022-08-05T12:32:02.150Z,56.84
2022-08-05T12:35:39.374Z,55.08
2022-08-05T12:39:05.504Z,56.31
2022-08-05T12:42:31.098Z,55.13
2022-08-05T12:45:54.664Z,55.39
2022-08-05T12:49:18.963Z,54.84
2022-08-05T12:52:42.467Z,53.99
2022-08-05T12:56:34.526Z,54.15
2022-08-05T13:01:57.535Z,54.78
2022-08-05T13:03:42.871Z,54.70
2022-08-05T13:07:10.372Z,55.14
2022-08-05T13:10:50.256Z,54.37
2022-08-05T13:14:25.023Z,54.50
2022-08-05T13:17:59.349Z,53.89
2022-08-05T13:21:21.623Z,53.46
2022-08-05T13:24:57.358Z,53.13
2022-08-05T13:28:21.816Z,53.43
2022-08-05T13:32:04.977Z,53.65
2022-08-05T13:35:31.339Z,53.97
2022-08-05T13:39:24.428Z,52.86
2022-08-05T13:42:55.741Z,53.31
2022-08-05T13:46:35.832Z,52.88
2022-08-05T13:50:04.557Z,52.69
2022-08-05T13:53:28.043Z,52.05
2022-08-05T13:56:53.587Z,51.27
2022-08-05T14:00:15.723Z,51.42
2022-08-05T14:03:42.143Z,51.16
2022-08-05T14:07:26.515Z,50.80
2022-08-05T14:10:59.834Z,50.80
2022-08-05T14:14:33.535Z,51.29
2022-08-05T14:17:57.792Z,52.56
2022-08-05T14:22:07.084Z,52.44
2022-08-05T14:25:06.460Z,53.58
2022-08-05T14:28:52.350Z,53.90
2022-08-05T14:32:26.587Z,54.44
2022-08-05T14:35:50.367Z,54.70
2022-08-05T14:39:13.603Z,54.86
2022-08-05T14:42:46.918Z,54.84
2022-08-05T14:46:11.071Z,54.10
2022-08-05T14:49:59.469Z,53.97
2022-08-05T14:53:15.289Z,53.93
2022-08-05T14:56:38.108Z,53.49
2022-08-05T15:00:08.646Z,53.61
2022-08-05T15:03:38.940Z,53.76
2022-08-05T15:07:01.465Z,54.19
2022-08-05T15:10:28.804Z,53.54
2022-08-05T15:13:50.749Z,53.83
2022-08-05T15:17:44.296Z,53.81
2022-08-05T15:20:55.419Z,53.41
2022-08-05T15:24:17.602Z,53.93
2022-08-05T15:27:51.911Z,54.14
2022-08-05T15:31:14.707Z,54.07
2022-08-05T15:34:32.527Z,54.74
2022-08-05T15:38:34.273Z,54.98
2022-08-05T15:41:55.924Z,55.30
2022-08-05T15:45:18.982Z,55.43
2022-08-05T15:49:09.920Z,55.41
2022-08-05T15:52:53.410Z,55.51
2022-08-05T15:56:16.622Z,56.17
2022-08-05T15:59:40.177Z,56.31
2022-08-05T16:03:04.915Z,56.80
2022-08-05T16:06:27.279Z,57.15
2022-08-05T16:09:51.226Z,57.23
2022-08-05T16:13:23.715Z,57.46
2022-08-05T16:16:46.930Z,57.83
2022-08-05T16:20:12.173Z,58.57
2022-08-05T16:23:53.667Z,58.87
2022-08-05T16:27:17.070Z,59.27
2022-08-05T16:30:39.477Z,59.45
2022-08-05T16:34:03.157Z,59.71
2022-08-05T16:38:10.576Z,59.95
2022-08-05T16:42:12.344Z,60.25
2022-08-05T16:44:54.249Z,60.41
2022-08-05T16:48:25.191Z,60.26
2022-08-05T16:51:50.295Z,60.85
2022-08-05T16:55:13.320Z,61.38
2022-08-05T16:58:35.164Z,62.28
2022-08-05T17:01:58.069Z,61.82
2022-08-05T17:05:21.650Z,61.64
2022-08-05T17:08:53.265Z,61.32
2022-08-05T17:12:16.222Z,61.22
2022-08-05T17:15:49.075Z,61.32
2022-08-05T17:19:16.455Z,62.54
2022-08-05T17:22:38.881Z,62.75
2022-08-05T17:26:00.750Z,62.93
2022-08-05T17:29:33.111Z,63.62
2022-08-05T17:32:56.499Z,64.04
2022-08-05T17:36:33.840Z,64.40
2022-08-05T17:39:57.495Z,64.05
2022-08-05T17:43:47.025Z,64.19
2022-08-05T17:47:03.402Z,64.10
2022-08-05T17:50:28.020Z,64.40
2022-08-05T17:53:54.656Z,64.46
2022-08-05T17:57:16.725Z,65.10
2022-08-05T18:00:44.694Z,65.59
2022-08-05T18:04:11.915Z,64.95
2022-08-05T18:07:41.748Z,64.77
2022-08-05T18:11:06.018Z,64.12
2022-08-05T18:14:28.678Z,64.12
2022-08-05T18:18:00.830Z,64.16
2022-08-05T18:21:26.481Z,62.97
2022-08-05T18:24:50.605Z,61.81
2022-08-05T18:28:16.627Z,61.96
2022-08-05T18:32:12.983Z,60.18
2022-08-05T18:35:59.899Z,60.37
2022-08-05T18:39:42.575Z,60.00
2022-08-05T18:42:59.601Z,60.80
2022-08-05T18:46:22.847Z,60.71
2022-08-05T18:50:05.029Z,61.14
2022-08-05T18:53:34.694Z,60.51
2022-08-05T18:57:05.141Z,60.09
2022-08-05T19:00:31.662Z,59.19
2022-08-05T19:03:58.158Z,59.35
2022-08-05T19:07:20.421Z,58.62
2022-08-05T19:10:42.394Z,58.64
2022-08-05T19:14:20.045Z,57.70
2022-08-05T19:18:08.532Z,57.60
2022-08-05T19:21:34.137Z,56.80
2022-08-05T19:25:00.663Z,56.92
2022-08-05T19:28:24.467Z,57.11
2022-08-05T19:31:51.357Z,56.96
2022-08-05T19:35:13.256Z,56.80
2022-08-05T19:38:41.007Z,56.90
2022-08-05T19:42:07.333Z,57.00
2022-08-05T19:45:33.296Z,57.38
2022-08-05T19:49:00.831Z,57.31
2022-08-05T19:52:31.814Z,57.04
2022-08-05T19:56:14.354Z,56.99
2022-08-05T19:59:51.151Z,57.15
2022-08-05T20:03:21.570Z,57.08
2022-08-05T20:06:46.003Z,57.81
2022-08-05T20:10:13.427Z,57.86
2022-08-05T20:13:58.218Z,58.22
2022-08-05T20:17:23.447Z,58.32
2022-08-05T20:20:46.114Z,58.49
2022-08-05T20:24:11.464Z,58.47
2022-08-05T20:27:41.636Z,58.58
2022-08-05T20:31:05.631Z,58.93
2022-08-05T20:34:28.513Z,59.11
2022-08-05T20:38:06.770Z,59.19
2022-08-05T20:41:44.061Z,59.37
2022-08-05T20:45:07.974Z,59.08
2022-08-05T20:48:31.587Z,59.42
2022-08-05T20:51:54.044Z,59.73
2022-08-05T20:55:56.693Z,60.17
2022-08-05T20:58:59.833Z,60.08
2022-08-05T21:02:26.774Z,60.03
2022-08-05T21:05:55.647Z,59.97
2022-08-05T21:09:20.964Z,60.55
2022-08-05T21:12:57.722Z,60.94
2022-08-05T21:16:29.525Z,61.27
2022-08-05T21:19:52.153Z,61.41
2022-08-05T21:23:15.317Z,61.58
2022-08-05T21:26:38.383Z,61.11
2022-08-05T21:30:03.444Z,61.06
2022-08-05T21:33:25.426Z,60.96
2022-08-05T21:37:01.976Z,61.05
2022-08-05T21:40:26.946Z,60.87
2022-08-05T21:44:01.822Z,61.07
2022-08-05T21:47:55.089Z,61.32
2022-08-05T21:52:16.291Z,61.46
2022-08-05T21:54:51.974Z,61.46
2022-08-05T21:58:19.243Z,61.45
2022-08-05T22:01:41.231Z,61.16
2022-08-05T22:05:04.826Z,61.37
2022-08-05T22:08:27.170Z,62.03
2022-08-05T22:11:48.998Z,62.34
2022-08-05T22:15:16.498Z,62.89
2022-08-05T22:18:39.034Z,63.71
2022-08-05T22:22:01.323Z,64.02
2022-08-05T22:26:10.130Z,64.32
2022-08-05T22:29:26.859Z,64.73
2022-08-05T22:32:55.928Z,65.07
2022-08-05T22:36:24.133Z,65.52
2022-08-05T22:39:50.463Z,65.70
2022-08-05T22:43:12.206Z,65.82
2022-08-05T22:46:39.834Z,66.29
2022-08-05T22:50:20.672Z,65.96
2022-08-05T22:53:49.916Z,65.85
2022-08-05T22:57:11.767Z,66.31
2022-08-05T23:00:33.646Z,66.53
2022-08-05T23:03:58.811Z,66.31
2022-08-05T23:07:22.595Z,66.76
2022-08-05T23:10:44.188Z,66.27
2022-08-05T23:14:06.140Z,66.58
2022-08-05T23:17:34.529Z,66.57
2022-08-05T23:20:59.611Z,66.45
2022-08-05T23:24:23.569Z,66.51
2022-08-05T23:28:00.177Z,66.91
2022-08-05T23:31:22.469Z,66.82
2022-08-05T23:34:44.518Z,67.05
2022-08-05T23:38:06.444Z,67.45
2022-08-05T23:41:37.355Z,67.73
2022-08-05T23:45:02.829Z,67.28
2022-08-05T23:48:25.297Z,67.70
2022-08-05T23:52:05.730Z,67.94
2022-08-05T23:55:31.051Z,67.95
2022-08-05T23:58:54.570Z,68.15
